Terminal Aerodrome Forecast
Issued by NWS

Home | Current Version | Previous Version | Text Only | Print | Product List | Glossary On
Versions: 1 2 3 4 5 6 7 8 9 10 11 12 13 14 15 16 17 18 19 20 21 22 23 24 25 26 27 28 29 30 31 32 33 34 35 36
000
FTUS41 KRNK 131725
TAFLWB
TAF
KLWB 131725Z 1318/1418 26006KT P6SM SCT060
     FM132300 24003KT P6SM SCT100
     FM140900 00000KT 3SM BR BKN040
     FM141200 23003KT P6SM BKN050
     FM141500 25006KT P6SM BKN060=

USA.gov is the U.S. government's official web portal to all federal, state and local government web resources and services.